• Join FlightAware (Why Join?)
  • Login
  • US Flag 
04:03AM EDT


 

Airport Tracker/Info


-or-


 

Live Flight TrackerFlight Track Log ✈ DAL6036 ✈ 25-Apr-2013 ✈ KRIC - KDTW

Flight Track Log - Related Links

Times and Time Zones

All times are in EDT time to prevent confusion due to time zone crossing. See the DAL6036 flight status page for this flight to view local times or setup timezone preferences in your user account.

Time Position Orientation Groundspeed Altitude Reporting Facility
EDT Latitude Longitude Course Direction KTS MPH feet Rate Location/Type
04:53PM 37.5492 -77.3653 270° West 188 216 1,900  Level Washington Center
04:54PM 37.5397 -77.4303 260° West 240 276 3,700 2,100 Climbing Washington Center
04:55PM 37.5033 -77.4950 235° Southwest 246 283 6,100 2,400 Climbing Washington Center
04:56PM 37.4606 -77.5567 229° Southwest 246 283 8,600 2,040 Climbing Washington Center
04:57PM 37.3729 -77.8636 254° West  Level FlightAware Approximate
04:57PM 37.4300 -77.6344 244° Southwest 246 283 10,200  Level Washington Center
04:58PM 37.3500 -77.9742 270° West  Level FlightAware Approximate
04:58PM 37.4117 -77.7281 256° West 251 289 12,200  Level Washington Center
04:59PM 37.3956 -77.8086 256° West 271 312 14,000 1,500 Climbing Washington Center
05:00PM 37.3750 -77.9047 255° West 278 320 15,300 1,320 Climbing Washington Center
05:01PM 37.3544 -78.0033 255° West 284 327 16,700 1,260 Climbing Washington Center
05:02PM 37.3336 -78.0994 255° West 284 327 17,900 1,560 Climbing Washington Center
05:03PM 37.3106 -78.2031 254° West 289 333 19,900 1,020 Climbing Washington Center
05:04PM 37.2917 -78.3069 257° West 295 339 20,000  Climbing Washington Center
05:05PM 37.3417 -78.3975 305° West 315 362 20,000 900 Level Washington Center
05:06PM 37.4064 -78.4808 314° West 320 368 21,800 1,920 Climbing Washington Center
05:07PM 37.4692 -78.5617 314° West 325 374 23,900 1,860 Climbing Washington Center
05:08PM 37.5358 -78.6428 316° Northwest 314 361 25,600 1,020 Climbing Washington Center
05:09PM 37.5964 -78.7214 314° West 308 354 26,000 180 Climbing Washington Center
05:10PM 37.6631 -78.8056 315° West 316 364 26,000  Level Washington Center
05:11PM 37.7336 -78.8925 316° Northwest 333 383 26,000  Level Washington Center
05:12PM 37.7961 -78.9714 315° West 350 403 26,000  Level Washington Center
05:13PM 37.8644 -79.0586 315° West 350 403 26,000  Level Washington Center
05:14PM 37.9350 -79.1436 316° Northwest 350 403 26,000  Level Washington Center
05:15PM 38.0053 -79.2417 312° West 344 396 26,000  Level Washington Center
05:16PM 38.0100 -79.3553 273° West 315 362 26,000  Level Washington Center
05:17PM 38.0042 -79.4683 266° West 315 362 26,000 300 Level Washington Center
05:18PM 37.9986 -79.5736 266° West 325 374 26,600 1,140 Climbing Washington Center
05:19PM 38.0036 -79.6792 273° West 325 374 28,300 1,620 Climbing Washington Center
05:20PM 38.0189 -79.7775 281° West 311 358 29,900 840 Climbing Washington Center
05:21PM 38.0400 -79.8922 283° West 297 342 30,000  Climbing Washington Center
05:22PM 38.0589 -80.0014 282° West 302 348 30,000  Level Washington Center
05:24PM 38.1017 -80.2542 282° West 315 362 30,000  Level Indianapolis Center
05:25PM 38.1206 -80.3625 283° West 314 361 30,000  Level Indianapolis Center
05:26PM 38.1383 -80.4694 282° West 310 357 30,000  Level Indianapolis Center
05:27PM 38.1561 -80.5767 282° West 310 357 30,000  Level Indianapolis Center
05:28PM 38.1778 -80.7039 282° West 308 354 30,000  Level Indianapolis Center
05:29PM 38.1956 -80.8089 282° West 305 351 30,000  Level Indianapolis Center
05:30PM 38.2136 -80.9153 282° West 307 353 30,000  Level Indianapolis Center
05:31PM 38.2294 -81.0208 281° West 304 350 30,000  Level Indianapolis Center
05:32PM 38.2469 -81.1264 282° West 303 349 30,000  Level Indianapolis Center
05:33PM 38.2650 -81.2325 282° West 306 352 30,000  Level Indianapolis Center
05:34PM 38.3111 -81.3206 304° West 316 364 30,000  Level Indianapolis Center
05:35PM 38.4158 -81.3617 343° North 328 377 30,000  Level Indianapolis Center
05:36PM 38.5044 -81.3958 343° North 332 382 30,000  Level Indianapolis Center
05:37PM 38.5928 -81.4292 344° North 331 381 30,000  Level Indianapolis Center
05:38PM 38.6808 -81.4639 343° North 329 379 30,000  Level Indianapolis Center
05:40PM 38.7694 -81.4986 343° North 331 381 30,000  Level Indianapolis Center
05:41PM 38.8689 -81.5350 344° North 334 384 30,000  Level Indianapolis Center
05:42PM 38.9578 -81.5692 343° North 334 384 30,000  Level Indianapolis Center
05:43PM 39.0472 -81.6036 343° North 336 387 30,000 -60 Level Indianapolis Center
05:44PM 39.1364 -81.6381 343° North 336 387 29,900  Descending Indianapolis Center
05:45PM 39.2275 -81.6725 344° North 339 390 30,000  Climbing Indianapolis Center
05:46PM 39.3367 -81.7144 343° North 340 391 30,000  Level Indianapolis Center
05:47PM 39.4317 -81.7372 350° North 346 398 30,000  Level Indianapolis Center
05:48PM 39.5322 -81.7611 350° North 364 419 30,000  Level Indianapolis Center
05:49PM 39.6353 -81.7869 349° North 375 432 30,000 -60 Level Indianapolis Center
05:50PM 39.7422 -81.8128 349° North 388 447 29,900 -60 Descending Indianapolis Center
05:51PM 39.8519 -81.8400 349° North 397 457 29,900  Level Indianapolis Center
05:52PM 39.9803 -81.8711 349° North 400 460 29,900  Level Indianapolis Center
05:53PM 40.0917 -81.8981 350° North 403 464 29,900  Level Indianapolis Center
05:54PM 40.2036 -81.9275 349° North 407 468 30,000  Climbing Indianapolis Center
05:55PM 40.3083 -81.9525 350° North 406 467 30,000  Level Indianapolis Center
05:56PM 40.4025 -81.9764 349° North 390 449 30,000  Level Cleveland Center
05:57PM 40.5189 -82.0061 349° North 403 464 30,000  Level Cleveland Center
05:58PM 40.6311 -82.0275 352° North 408 470 30,000  Level Cleveland Center
05:59PM 40.7419 -82.0136 North 397 457 30,000  Level Cleveland Center
06:00PM 40.8550 -81.9694 16° North 408 470 30,000 -120 Level Cleveland Center
06:01PM 40.9514 -81.9331 16° North 408 470 29,800 -1,140 Descending Cleveland Center
06:02PM 41.0581 -81.8939 15° North 408 470 27,800 -2,160 Descending Cleveland Center
06:03PM 41.1794 -81.8550 14° North 403 464 25,500 -1,860 Descending Cleveland Center
06:04PM 41.2664 -81.9147 333° Northwest 360 414 24,100 -780 Descending Cleveland Center
06:05PM 41.3172 -82.0125 305° West 315 362 24,000 -240 Descending Cleveland Center
06:06PM 41.3681 -82.1075 306° West 306 352 23,700 -1,080 Descending Cleveland Center
06:07PM 41.4189 -82.2114 303° West 321 369 21,900 -1,980 Descending Cleveland Center
06:08PM 41.4758 -82.3153 306° West 343 395 19,800 -1,980 Descending Cleveland Center
06:08PM 41.5061 -82.3658 309° West 343 395 18,800 -2,040 Descending Cleveland Center
06:09PM 41.5306 -82.4167 303° West 343 395 17,800 -2,100 Descending Cleveland Center
06:09PM 41.5689 -82.4897 305° West 334 384 16,500 -2,100 Descending Cleveland Center
06:10PM 41.5831 -82.5153 307° West 335 386 15,700 -2,640 Descending Cleveland Center
06:10PM 41.6153 -82.5744 306° West 311 358 14,100 -2,520 Descending Cleveland Center
06:11PM 41.6314 -82.6056 305° West 317 365 13,200 -1,800 Descending Cleveland Center
06:11PM 41.6678 -82.6736 306° West 294 338 12,100 -1,200 Descending Cleveland Center
06:12PM 41.6739 -82.6847 306° West 310 357 12,000  Descending Cleveland Center
06:12PM 41.7122 -82.7556 306° West 301 346 12,100  Climbing Cleveland Center
06:13PM 41.7242 -82.7811 302° West 303 349 12,000  Descending Cleveland Center
06:13PM 41.7753 -82.8383 320° Northwest 322 371 12,100  Climbing Cleveland Center
06:14PM 41.7872 -82.8556 313° West 303 349 12,000  Descending Cleveland Center
06:14PM 41.8322 -82.9100 318° Northwest 307 353 12,100  Climbing Cleveland Center
06:15PM 41.8506 -82.9303 321° Northwest 303 349 12,000  Descending Cleveland Center
06:15PM 41.9033 -82.9936 318° Northwest 294 338 12,100 60 Climbing Cleveland Center
06:16PM 41.9114 -83.0050 314° West 298 343 12,100 -120 Level Cleveland Center
06:17PM 41.9703 -83.0744 319° Northwest 300 345 12,000  Descending Cleveland Center
06:18PM 42.0292 -83.1467 318° Northwest 309 356 12,100  Climbing Cleveland Center
06:18PM 42.0842 -83.2103 319° Northwest 264 304 12,000 -660 Descending Cleveland Center
06:19PM 42.1400 -83.2294 346° North 210 242 10,900 -1,380 Descending Cleveland Center
06:21PM 42.2075 -83.1986 19° North 236 272 9,100 -1,560 Descending Cleveland Center
06:22PM 42.2628 -83.1503 33° Northeast 228 262 7,600 -1,620 Descending Cleveland Center
06:23PM 42.3242 -83.1081 27° Northeast 233 268 5,900 -1,320 Descending Cleveland Center
06:24PM 42.3689 -83.1575 321° Northwest 197 227 5,000 -840 Descending Cleveland Center
06:25PM 42.3528 -83.2272 253° West 192 221 4,300 -720 Descending Cleveland Center